Time;durP1;ratioP1;P1;durP2;ratioP2;P2;SDS_P1;SDS_P2;PMS_P1;PMS_P2;Temp;Humidity;BMP_temperature;BMP_pressure;BME280_temperature;BME280_humidity;BME280_pressure;Samples;Min_cycle;Max_cycle;Signal;HPM_P1;HPM_P2
2022/02/12 00:02:17;;;;;;;21.10;9.50;;;;;;;;;;5089835;28;20032;-61
2022/02/12 00:04:43;;;;;;;20.48;7.15;;;;;;;;;;5081147;28;20024;-63
2022/02/12 00:07:09;;;;;;;19.15;8.05;;;;;;;;;;5089607;28;20024;-61
2022/02/12 00:09:36;;;;;;;16.85;7.75;;;;;;;;;;5090053;28;20498;-61
2022/02/12 00:12:02;;;;;;;22.85;8.98;;;;;;;;;;5083342;28;20096;-61
2022/02/12 00:14:28;;;;;;;20.75;8.07;;;;;;;;;;5060023;28;20049;-62
2022/02/12 00:16:54;;;;;;;20.17;7.72;;;;;;;;;;5058427;28;20035;-62
2022/02/12 00:19:20;;;;;;;22.52;9.80;;;;;;;;;;5072021;28;20025;-63
2022/02/12 00:21:46;;;;;;;20.27;8.50;;;;;;;;;;5069696;28;20468;-62
2022/02/12 00:24:12;;;;;;;16.88;6.97;;;;;;;;;;5068887;28;20099;-61
2022/02/12 00:26:38;;;;;;;18.52;7.57;;;;;;;;;;5069337;28;20479;-60
2022/02/12 00:29:04;;;;;;;19.05;8.07;;;;;;;;;;5069138;28;20442;-62
2022/02/12 00:31:30;;;;;;;19.90;7.93;;;;;;;;;;5069438;28;20033;-56
2022/02/12 00:33:56;;;;;;;20.75;9.15;;;;;;;;;;5068048;28;20023;-62
2022/02/12 00:36:22;;;;;;;20.77;7.82;;;;;;;;;;5052698;28;20020;-61
2022/02/12 00:38:50;;;;;;;19.77;7.63;;;;;;;;;;5091430;28;20115;-62
2022/02/12 00:41:16;;;;;;;19.75;8.23;;;;;;;;;;5091659;28;20020;-59
2022/02/12 00:43:42;;;;;;;20.45;8.45;;;;;;;;;;5073548;28;20033;-62
2022/02/12 00:46:08;;;;;;;19.50;7.75;;;;;;;;;;5091714;28;20395;-60
2022/02/12 00:48:34;;;;;;;18.88;8.32;;;;;;;;;;5072746;28;20017;-62
2022/02/12 00:51:00;;;;;;;16.10;7.32;;;;;;;;;;5092404;28;20027;-63
2022/02/12 00:53:26;;;;;;;21.48;7.82;;;;;;;;;;5092021;28;20020;-61
2022/02/12 00:55:52;;;;;;;20.90;7.57;;;;;;;;;;5091933;28;20020;-63
2022/02/12 00:58:19;;;;;;;19.92;7.05;;;;;;;;;;5092107;28;20024;-63
2022/02/12 01:00:45;;;;;;;18.80;7.53;;;;;;;;;;5092119;28;20020;-63
2022/02/12 01:03:11;;;;;;;15.52;7.35;;;;;;;;;;5092141;28;20443;-58
2022/02/12 01:05:37;;;;;;;19.70;7.38;;;;;;;;;;5073802;28;20030;-59
2022/02/12 01:08:03;;;;;;;21.17;8.48;;;;;;;;;;5073867;28;20024;-62
2022/02/12 01:10:30;;;;;;;18.92;7.95;;;;;;;;;;5092211;28;20031;-62
2022/02/12 01:12:57;;;;;;;17.38;7.38;;;;;;;;;;5092229;28;20017;-62
2022/02/12 01:18:01;;;;;;;22.33;8.98;;;;;;;;;;5047385;28;20389;-67
2022/02/12 01:20:27;;;;;;;20.63;8.27;;;;;;;;;;5050207;28;20102;-66
2022/02/12 01:22:53;;;;;;;20.35;7.85;;;;;;;;;;5050292;28;20048;-67
2022/02/12 01:25:21;;;;;;;21.30;8.18;;;;;;;;;;5050176;28;20017;-67
2022/02/12 01:27:47;;;;;;;22.87;10.30;;;;;;;;;;5050159;28;20282;-66
2022/02/12 01:30:13;;;;;;;19.67;7.60;;;;;;;;;;5050167;28;20028;-65
2022/02/12 01:32:39;;;;;;;27.95;8.85;;;;;;;;;;5050172;28;20022;-63
2022/02/12 01:35:07;;;;;;;17.42;7.88;;;;;;;;;;5032175;28;20044;-66
2022/02/12 01:37:33;;;;;;;20.17;8.30;;;;;;;;;;5050242;28;20093;-65
2022/02/12 01:39:59;;;;;;;20.40;7.57;;;;;;;;;;5032243;28;20036;-65
2022/02/12 01:42:28;;;;;;;18.80;7.50;;;;;;;;;;5050116;28;20029;-65
2022/02/12 01:44:54;;;;;;;23.83;7.95;;;;;;;;;;5033486;28;20111;-65
2022/02/12 01:47:20;;;;;;;17.27;7.60;;;;;;;;;;5035853;28;20428;-66
2022/02/12 01:49:46;;;;;;;18.70;7.93;;;;;;;;;;5035776;28;20056;-65
2022/02/12 01:52:13;;;;;;;20.77;8.23;;;;;;;;;;5053848;28;20025;-66
2022/02/12 01:54:40;;;;;;;18.63;7.38;;;;;;;;;;5035437;28;20049;-66
2022/02/12 01:57:09;;;;;;;21.60;8.27;;;;;;;;;;5035789;28;20039;-65
2022/02/12 01:59:35;;;;;;;24.67;8.65;;;;;;;;;;5053778;28;20028;-65
2022/02/12 02:02:02;;;;;;;20.38;8.23;;;;;;;;;;5053556;28;20036;-65
2022/02/12 02:04:29;;;;;;;20.48;8.07;;;;;;;;;;5035298;28;20132;-64
2022/02/12 02:06:55;;;;;;;21.15;7.60;;;;;;;;;;5035442;28;20159;-65
2022/02/12 02:09:21;;;;;;;17.90;8.68;;;;;;;;;;5053221;28;20115;-66
2022/02/12 02:11:48;;;;;;;19.50;8.30;;;;;;;;;;5035200;28;20107;-65
2022/02/12 02:14:14;;;;;;;19.42;7.78;;;;;;;;;;5035155;28;20025;-66
2022/02/12 02:16:41;;;;;;;22.10;7.88;;;;;;;;;;5053091;28;20032;-66
2022/02/12 02:19:07;;;;;;;20.02;8.27;;;;;;;;;;5052977;28;20078;-66
2022/02/12 02:21:39;;;;;;;20.92;7.90;;;;;;;;;;5035347;28;20460;-67
2022/02/12 02:24:06;;;;;;;22.92;8.65;;;;;;;;;;5035166;28;20416;-66
2022/02/12 02:26:33;;;;;;;20.48;8.00;;;;;;;;;;5052684;28;20027;-66
2022/02/12 02:28:59;;;;;;;21.63;8.23;;;;;;;;;;5035031;28;20056;-67
2022/02/12 02:31:25;;;;;;;28.58;8.02;;;;;;;;;;5052952;28;20024;-67
2022/02/12 02:33:51;;;;;;;23.83;8.55;;;;;;;;;;5034694;28;20021;-67
2022/02/12 02:36:17;;;;;;;21.33;8.77;;;;;;;;;;5052746;28;20055;-66
2022/02/12 02:38:43;;;;;;;21.77;8.95;;;;;;;;;;5052691;28;20039;-67
2022/02/12 02:41:09;;;;;;;18.52;8.57;;;;;;;;;;5052485;28;20511;-67
2022/02/12 02:43:36;;;;;;;23.75;8.90;;;;;;;;;;5052673;28;20056;-66
2022/02/12 02:46:02;;;;;;;19.90;8.20;;;;;;;;;;5052214;28;20025;-66
2022/02/12 02:48:28;;;;;;;21.73;7.72;;;;;;;;;;5052418;28;20103;-66
2022/02/12 02:56:23;;;;;;;27.38;8.35;;;;;;;;;;5051349;28;20036;-67
2022/02/12 02:58:52;;;;;;;21.17;8.20;;;;;;;;;;5052365;28;20500;-66
2022/02/12 03:01:20;;;;;;;19.00;8.30;;;;;;;;;;5052267;28;20052;-65
2022/02/12 03:03:47;;;;;;;21.13;7.00;;;;;;;;;;5052010;28;20033;-68
2022/02/12 03:06:14;;;;;;;21.08;8.10;;;;;;;;;;5034035;28;20025;-67
2022/02/12 03:08:40;;;;;;;19.52;8.07;;;;;;;;;;5052452;28;20443;-67
2022/02/12 03:11:07;;;;;;;18.52;8.00;;;;;;;;;;5034339;28;20034;-66
2022/02/12 03:13:33;;;;;;;19.60;8.27;;;;;;;;;;5052214;28;20066;-65
2022/02/12 03:15:59;;;;;;;20.67;8.18;;;;;;;;;;5051765;28;20040;-66
2022/02/12 03:18:28;;;;;;;22.35;9.38;;;;;;;;;;5051872;28;20017;-67
2022/02/12 03:20:54;;;;;;;21.27;7.88;;;;;;;;;;5034178;28;20108;-67
2022/02/12 03:23:20;;;;;;;21.92;8.52;;;;;;;;;;5052492;28;20017;-66
2022/02/12 03:25:46;;;;;;;19.48;7.97;;;;;;;;;;5033696;28;20024;-66
2022/02/12 03:28:12;;;;;;;22.02;8.02;;;;;;;;;;5033741;28;20032;-66
2022/02/12 03:30:40;;;;;;;20.85;8.30;;;;;;;;;;5033841;28;20048;-67
2022/02/12 03:33:06;;;;;;;18.60;7.35;;;;;;;;;;5051523;28;20025;-67
2022/02/12 03:35:33;;;;;;;23.58;8.30;;;;;;;;;;5051372;28;20052;-67
2022/02/12 03:38:08;;;;;;;19.48;8.20;;;;;;;;;;5051723;28;20025;-66
2022/02/12 03:40:38;;;;;;;20.35;7.60;;;;;;;;;;5033685;28;20031;-66
2022/02/12 03:43:04;;;;;;;18.90;8.00;;;;;;;;;;5051132;28;20040;-67
2022/02/12 03:45:30;;;;;;;23.05;8.27;;;;;;;;;;5051070;28;20021;-66
2022/02/12 03:47:56;;;;;;;22.35;8.23;;;;;;;;;;5033247;28;20036;-66
2022/02/12 03:50:22;;;;;;;24.00;8.30;;;;;;;;;;5051463;28;20021;-66
2022/02/12 03:52:49;;;;;;;20.70;8.52;;;;;;;;;;5051369;28;20020;-66
2022/02/12 03:55:16;;;;;;;17.50;8.05;;;;;;;;;;5050824;28;20021;-67
2022/02/12 03:57:45;;;;;;;18.27;7.57;;;;;;;;;;5051314;28;20091;-67
2022/02/12 04:00:11;;;;;;;20.27;8.25;;;;;;;;;;5033924;28;20025;-67
2022/02/12 04:02:44;;;;;;;19.42;7.50;;;;;;;;;;5051155;28;20512;-67
2022/02/12 04:05:10;;;;;;;21.35;8.00;;;;;;;;;;5050848;28;20527;-67
2022/02/12 04:07:38;;;;;;;21.88;8.15;;;;;;;;;;5050798;28;20387;-67
2022/02/12 04:10:05;;;;;;;19.40;7.03;;;;;;;;;;5051128;28;20032;-66
2022/02/12 04:12:31;;;;;;;21.53;7.83;;;;;;;;;;5051221;28;20017;-67
2022/02/12 04:14:57;;;;;;;21.02;7.05;;;;;;;;;;5032746;28;20674;-66
2022/02/12 04:17:24;;;;;;;23.05;7.65;;;;;;;;;;5033288;28;20087;-66
2022/02/12 04:19:51;;;;;;;19.98;8.27;;;;;;;;;;5050992;28;20029;-67
2022/02/12 04:22:17;;;;;;;16.45;7.95;;;;;;;;;;5033147;28;20071;-66
2022/02/12 04:24:43;;;;;;;20.65;8.07;;;;;;;;;;5032731;28;20041;-66
2022/02/12 04:27:09;;;;;;;16.92;7.93;;;;;;;;;;5032718;28;20389;-67
2022/02/12 04:29:35;;;;;;;20.58;7.63;;;;;;;;;;5032889;28;20077;-67
2022/02/12 04:32:01;;;;;;;18.77;7.97;;;;;;;;;;5050618;28;20022;-67
2022/02/12 04:34:27;;;;;;;31.75;12.60;;;;;;;;;;5050377;28;20026;-66
2022/02/12 04:36:53;;;;;;;81.13;41.67;;;;;;;;;;5032493;28;20029;-66
2022/02/12 04:39:20;;;;;;;37.97;16.85;;;;;;;;;;5032663;28;20060;-61
2022/02/12 04:41:46;;;;;;;43.85;22.60;;;;;;;;;;5050710;28;20401;-67
2022/02/12 04:44:12;;;;;;;21.95;10.20;;;;;;;;;;5050460;28;20025;-66
2022/02/12 04:46:38;;;;;;;21.75;10.02;;;;;;;;;;5050416;28;20532;-67
2022/02/12 04:49:05;;;;;;;43.35;18.48;;;;;;;;;;5032536;28;20044;-67
2022/02/12 04:51:31;;;;;;;20.60;8.52;;;;;;;;;;5050603;28;20035;-66
2022/02/12 04:53:59;;;;;;;17.25;6.90;;;;;;;;;;5050378;28;20521;-67
2022/02/12 04:56:25;;;;;;;21.35;9.10;;;;;;;;;;5050801;28;20079;-64
2022/02/12 04:58:51;;;;;;;19.25;7.47;;;;;;;;;;5032707;28;20041;-66
2022/02/12 05:01:20;;;;;;;19.90;7.85;;;;;;;;;;5050491;28;20048;-67
2022/02/12 05:03:48;;;;;;;18.83;9.02;;;;;;;;;;5050475;28;20025;-67
2022/02/12 05:06:14;;;;;;;19.27;7.87;;;;;;;;;;5050661;28;20032;-67
2022/02/12 05:08:40;;;;;;;20.95;8.38;;;;;;;;;;5051093;28;20346;-66
2022/02/12 05:11:06;;;;;;;17.98;7.43;;;;;;;;;;5032904;28;20068;-66
2022/02/12 05:13:32;;;;;;;21.63;8.07;;;;;;;;;;5050603;28;20104;-66
2022/02/12 05:15:58;;;;;;;18.05;7.85;;;;;;;;;;5032229;28;20065;-64
2022/02/12 05:18:24;;;;;;;22.25;7.97;;;;;;;;;;5050404;28;20021;-66
2022/02/12 05:20:50;;;;;;;20.38;8.25;;;;;;;;;;5053413;28;20101;-66
2022/02/12 05:23:16;;;;;;;16.83;7.93;;;;;;;;;;5036123;28;20123;-66
2022/02/12 05:25:42;;;;;;;17.13;8.27;;;;;;;;;;5053847;28;20061;-66
2022/02/12 05:28:08;;;;;;;17.88;7.63;;;;;;;;;;5054074;28;20488;-66
2022/02/12 05:30:34;;;;;;;20.83;7.97;;;;;;;;;;5035987;28;20029;-66
2022/02/12 05:33:00;;;;;;;17.98;7.63;;;;;;;;;;5036011;28;20120;-66
2022/02/12 05:35:26;;;;;;;18.80;8.20;;;;;;;;;;5053739;28;20028;-65
2022/02/12 05:37:52;;;;;;;25.20;8.60;;;;;;;;;;5053841;28;20031;-66
2022/02/12 05:40:18;;;;;;;17.80;8.27;;;;;;;;;;5053647;28;20079;-67
2022/02/12 05:42:44;;;;;;;20.00;8.57;;;;;;;;;;5053805;28;20028;-66
2022/02/12 05:45:10;;;;;;;18.73;8.27;;;;;;;;;;5035399;28;20021;-67
2022/02/12 05:47:40;;;;;;;19.17;8.00;;;;;;;;;;5035901;28;20431;-65
2022/02/12 05:50:06;;;;;;;18.77;8.70;;;;;;;;;;5053617;28;20021;-66
2022/02/12 05:52:32;;;;;;;20.17;8.27;;;;;;;;;;5035889;28;20047;-66
2022/02/12 05:54:58;;;;;;;18.90;8.13;;;;;;;;;;5053485;28;20025;-67
2022/02/12 05:57:24;;;;;;;20.27;8.07;;;;;;;;;;5035665;28;20533;-66
2022/02/12 05:59:50;;;;;;;19.83;8.32;;;;;;;;;;5053460;28;20025;-65
2022/02/12 06:02:16;;;;;;;21.95;8.23;;;;;;;;;;5053393;28;20029;-66
2022/02/12 06:04:42;;;;;;;19.45;7.72;;;;;;;;;;5035312;28;20405;-66
2022/02/12 06:07:10;;;;;;;21.23;8.90;;;;;;;;;;5053259;28;20029;-66
2022/02/12 06:09:36;;;;;;;22.10;9.40;;;;;;;;;;5053598;28;20036;-66
2022/02/12 06:12:02;;;;;;;20.10;7.85;;;;;;;;;;5053316;28;20025;-66
2022/02/12 06:14:28;;;;;;;18.73;8.40;;;;;;;;;;5052894;28;20370;-66
2022/02/12 06:16:57;;;;;;;19.05;8.52;;;;;;;;;;5035034;28;20033;-67
2022/02/12 06:19:23;;;;;;;26.83;8.27;;;;;;;;;;5053022;28;20021;-65
2022/02/12 06:21:49;;;;;;;23.27;8.55;;;;;;;;;;5052913;28;20032;-66
2022/02/12 06:24:15;;;;;;;20.88;8.27;;;;;;;;;;5052663;28;20029;-66
2022/02/12 06:26:46;;;;;;;19.80;7.53;;;;;;;;;;5052813;28;20025;-65
2022/02/12 06:29:12;;;;;;;20.80;8.57;;;;;;;;;;5034816;28;20021;-65
2022/02/12 06:31:38;;;;;;;20.40;7.90;;;;;;;;;;5052700;28;20064;-66
2022/02/12 06:34:04;;;;;;;19.77;9.23;;;;;;;;;;5034583;28;20036;-65
2022/02/12 06:36:30;;;;;;;15.88;7.47;;;;;;;;;;5052507;28;20025;-65
2022/02/12 06:38:56;;;;;;;20.48;8.10;;;;;;;;;;5034880;28;20492;-66
2022/02/12 06:41:22;;;;;;;17.27;7.82;;;;;;;;;;5034829;28;20021;-65
2022/02/12 06:43:48;;;;;;;19.45;8.07;;;;;;;;;;5052172;28;20556;-66
2022/02/12 06:46:14;;;;;;;22.27;9.75;;;;;;;;;;5052511;28;20396;-66
2022/02/12 06:48:40;;;;;;;18.92;7.70;;;;;;;;;;5052622;28;20021;-66
2022/02/12 06:51:06;;;;;;;20.08;7.57;;;;;;;;;;5034642;28;20032;-65
2022/02/12 06:53:35;;;;;;;18.95;7.65;;;;;;;;;;5034795;28;20468;-65
2022/02/12 06:56:01;;;;;;;21.98;8.77;;;;;;;;;;5034171;28;20044;-66
2022/02/12 06:58:27;;;;;;;21.58;8.65;;;;;;;;;;5034141;28;20032;-67
2022/02/12 07:00:53;;;;;;;17.00;7.30;;;;;;;;;;5052065;28;20024;-66
2022/02/12 07:03:19;;;;;;;17.48;7.35;;;;;;;;;;5052188;28;20017;-66
2022/02/12 07:05:45;;;;;;;34.58;16.75;;;;;;;;;;5051846;28;20419;-66
2022/02/12 07:08:11;;;;;;;31.05;14.70;;;;;;;;;;5052132;28;20029;-64
2022/02/12 07:10:37;;;;;;;25.85;9.43;;;;;;;;;;5052217;28;20065;-65
2022/02/12 07:13:04;;;;;;;19.83;9.07;;;;;;;;;;5052045;28;20063;-65
2022/02/12 07:15:30;;;;;;;29.10;14.93;;;;;;;;;;5052077;28;20029;-67
2022/02/12 07:17:56;;;;;;;30.02;12.45;;;;;;;;;;5081434;23;20504;-65
2022/02/12 07:20:22;;;;;;;25.63;12.63;;;;;;;;;;5054980;28;20031;-62
2022/02/12 07:22:48;;;;;;;18.48;8.73;;;0.60;99.90;;;;;;5073073;28;20473;-63
2022/02/12 07:25:15;;;;;;;22.25;10.13;;;-0.10;99.90;;;;;;5054883;28;20020;-64
2022/02/12 07:27:41;;;;;;;25.38;10.07;;;-0.10;99.90;;;;;;5051568;28;20075;-63
2022/02/12 07:30:09;;;;;;;27.95;11.50;;;-0.10;99.90;;;;;;5044092;28;20027;-64
2022/02/12 07:32:39;;;;;;;24.15;8.88;;;0.00;99.90;;;;;;5045547;28;20012;-64
2022/02/12 07:35:06;;;;;;;21.10;8.50;;;0.00;99.90;;;;;;5062213;28;20029;-64
2022/02/12 07:37:32;;;;;;;25.33;9.03;;;0.10;99.90;;;;;;5043450;28;20025;-63
2022/02/12 07:40:02;;;;;;;19.25;7.40;;;0.20;99.90;;;;;;5060358;28;20789;-63
2022/02/12 07:42:28;;;;;;;22.80;7.85;;;0.20;99.90;;;;;;5039326;28;20036;-64
2022/02/12 07:44:53;;;;;;;24.55;8.32;;;0.30;99.90;;;;;;5052530;28;20488;-64
2022/02/12 07:47:19;;;;;;;19.83;7.53;;;0.30;99.90;;;;;;5062261;28;20480;-65
2022/02/12 07:49:45;;;;;;;20.65;7.28;;;0.40;99.90;;;;;;5054882;28;20024;-65
2022/02/12 07:52:10;;;;;;;18.98;7.93;;;0.40;99.90;;;;;;5072522;28;20024;-64
2022/02/12 07:54:36;;;;;;;20.50;7.63;;;0.50;99.90;;;;;;5072222;28;20468;-64
2022/02/12 07:57:02;;;;;;;20.48;7.57;;;0.60;99.90;;;;;;5072195;28;20020;-64
2022/02/12 07:59:27;;;;;;;17.55;7.55;;;0.80;99.90;;;;;;5072556;28;20476;-62
2022/02/12 08:01:53;;;;;;;25.02;9.35;;;0.90;99.90;;;;;;5054727;28;20024;-63
2022/02/12 08:04:19;;;;;;;18.80;7.53;;;1.00;99.90;;;;;;5072728;28;20027;-63
2022/02/12 08:09:31;;;;;;;19.60;8.00;;;1.20;99.90;;;;;;5072778;28;20074;-64
2022/02/12 08:12:06;;;;;;;19.60;7.68;;;1.30;99.90;;;;;;5072330;28;20070;-66
2022/02/12 08:14:33;;;;;;;22.00;7.78;;;1.30;99.90;;;;;;5071787;28;20027;-64
2022/02/12 08:16:59;;;;;;;20.25;7.05;;;1.40;99.90;;;;;;5072111;28;20109;-63
2022/02/12 08:19:25;;;;;;;19.63;7.18;;;1.40;99.90;;;;;;5054147;28;20483;-64
2022/02/12 08:21:51;;;;;;;18.02;6.78;;;1.50;99.90;;;;;;5054199;28;20064;-62
2022/02/12 08:24:17;;;;;;;20.85;8.13;;;1.60;99.90;;;;;;5053922;28;20036;-65
2022/02/12 08:26:43;;;;;;;22.83;8.57;;;;;;;;;;5072045;28;20028;-64
2022/02/12 08:29:09;;;;;;;18.20;6.90;;;;;;;;;;5072035;28;20032;-62
2022/02/12 08:31:35;;;;;;;19.80;7.05;;;;;;;;;;5072667;28;20487;-62
2022/02/12 08:34:01;;;;;;;20.45;7.38;;;;;;;;;;5053836;28;20024;-62
2022/02/12 08:36:27;;;;;;;19.20;7.22;;;;;;;;;;5049958;28;20490;-63
2022/02/12 08:38:53;;;;;;;24.08;7.28;;;;;;;;;;5043704;28;20029;-63
2022/02/12 08:41:19;;;;;;;16.90;7.40;;;;;;;;;;5060645;28;20490;-62
2022/02/12 08:43:45;;;;;;;17.05;7.13;;;;;;;;;;5063067;28;20036;-63
2022/02/12 08:46:11;;;;;;;16.05;6.38;;;;;;;;;;5061580;28;20037;-62
2022/02/12 08:48:37;;;;;;;21.20;8.10;;;;;;;;;;5052159;28;20017;-62
2022/02/12 08:51:07;;;;;;;24.55;7.28;;;;;;;;;;5052175;28;20056;-62
2022/02/12 08:53:33;;;;;;;20.63;9.15;;;;;;;;;;5052227;28;20025;-63
2022/02/12 08:56:00;;;;;;;20.60;7.88;;;;;;;;;;5056229;28;20366;-64
2022/02/12 08:58:26;;;;;;;19.30;7.40;;;1.70;99.90;;;;;;5056575;28;20043;-64
2022/02/12 09:00:52;;;;;;;20.85;7.60;;;2.90;99.90;;;;;;5076036;28;20021;-63
2022/02/12 09:03:18;;;;;;;18.17;7.38;;;;;;;;;;5076601;28;20074;-69
2022/02/12 09:05:44;;;;;;;17.73;6.82;;;;;;;;;;5058363;28;20064;-69
2022/02/12 09:08:11;;;;;;;28.90;9.18;;;;;;;;;;5058176;28;20055;-69
2022/02/12 09:10:37;;;;;;;21.15;7.78;;;;;;;;;;5058267;28;20098;-67
2022/02/12 09:13:02;;;;;;;21.17;7.82;;;2.90;99.90;;;;;;5057988;28;20024;-69
2022/02/12 09:15:29;;;;;;;16.98;6.93;;;;;;;;;;5058188;28;20110;-68
2022/02/12 09:17:55;;;;;;;17.27;6.82;;;;;;;;;;5058351;28;20044;-67
2022/02/12 09:20:21;;;;;;;17.65;7.70;;;;;;;;;;5076608;28;20412;-69
2022/02/12 09:22:47;;;;;;;20.95;8.05;;;;;;;;;;5076333;28;20163;-68
2022/02/12 09:25:13;;;;;;;21.75;7.70;;;;;;;;;;5075643;28;20033;-67
2022/02/12 09:27:40;;;;;;;18.70;7.50;;;;;;;;;;5075965;28;20484;-68
2022/02/12 09:30:06;;;;;;;22.13;8.32;;;;;;;;;;5076239;28;20035;-68
2022/02/12 09:32:32;;;;;;;21.83;7.80;;;;;;;;;;5076294;28;20361;-69
2022/02/12 09:34:58;;;;;;;19.38;7.20;;;;;;;;;;5076422;28;20188;-69
2022/02/12 09:37:25;;;;;;;17.10;7.90;;;;;;;;;;5077471;28;20032;-67
2022/02/12 09:39:51;;;;;;;19.00;7.07;;;;;;;;;;5076637;28;20032;-68
2022/02/12 09:42:17;;;;;;;39.53;19.70;;;;;;;;;;5078410;28;20051;-69
2022/02/12 09:44:43;;;;;;;20.50;8.88;;;;;;;;;;5077043;28;20507;-63
2022/02/12 09:47:20;;;;;;;17.83;7.63;;;;;;;;;;5058315;28;20024;-63
2022/02/12 09:49:46;;;;;;;26.05;9.30;;;;;;;;;;5075807;28;20052;-63
2022/02/12 09:52:15;;;;;;;19.73;7.18;;;;;;;;;;5065872;28;20077;-60
2022/02/12 09:54:43;;;;;;;23.65;8.60;;;;;;;;;;5070559;28;20427;-63
2022/02/12 09:57:09;;;;;;;19.63;7.53;;;;;;;;;;5063997;28;20032;-64
2022/02/12 09:59:36;;;;;;;18.38;8.18;;;;;;;;;;5063518;28;20067;-62
2022/02/12 10:02:03;;;;;;;17.88;8.02;;;;;;;;;;5061654;28;20396;-62
2022/02/12 10:04:31;;;;;;;23.90;7.47;;;;;;;;;;5055678;28;20039;-63
2022/02/12 10:06:58;;;;;;;18.42;7.72;;;;;;;;;;5065196;28;20056;-63
2022/02/12 10:09:24;;;;;;;18.67;7.78;;;;;;;;;;5039657;28;20029;-63
2022/02/12 10:11:51;;;;;;;22.27;7.03;;;;;;;;;;5055243;28;20074;-62
2022/02/12 10:14:17;;;;;;;19.58;7.63;;;;;;;;;;5045807;28;20546;-63
2022/02/12 10:16:50;;;;;;;18.08;7.13;;;;;;;;;;5065151;28;20032;-61
2022/02/12 10:19:16;;;;;;;18.48;7.80;;;;;;;;;;5064719;28;20029;-63
2022/02/12 10:22:02;;;;;;;21.05;7.28;;;;;;;;;;5065563;28;20024;-62
2022/02/12 10:24:47;;;;;;;19.60;8.43;;;;;;;;;;5060667;28;20025;-61
2022/02/12 10:27:13;;;;;;;18.17;7.60;;;;;;;;;;5054646;28;20025;-62
2022/02/12 10:29:39;;;;;;;21.23;8.30;;;;;;;;;;5035789;28;20568;-61
2022/02/12 10:32:05;;;;;;;19.30;7.35;;;;;;;;;;5054080;28;20056;-63
2022/02/12 10:34:43;;;;;;;20.38;7.65;;;;;;;;;;5036087;28;20108;-61
2022/02/12 10:37:10;;;;;;;20.80;7.97;;;;;;;;;;5054451;28;20033;-63
2022/02/12 10:40:09;;;;;;;17.38;6.95;;;;;;;;;;5054254;28;20420;-63
2022/02/12 10:42:43;;;;;;;18.08;6.95;;;;;;;;;;5010783;28;20059;-61
2022/02/12 10:45:11;;;;;;;20.85;8.20;;;;;;;;;;5054201;28;20025;-62
2022/02/12 10:47:37;;;;;;;19.83;7.65;;;;;;;;;;5054631;28;20047;-62
2022/02/12 10:50:03;;;;;;;19.30;7.80;;;;;;;;;;5036267;28;20456;-60
2022/02/12 10:52:42;;;;;;;21.23;9.00;;;;;;;;;;5052899;28;20028;-58
2022/02/12 10:55:09;;;;;;;17.83;7.28;;;;;;;;;;5053191;28;20021;-57
2022/02/12 10:57:38;;;;;;;20.05;7.90;;;;;;;;;;5053742;28;20021;-61
2022/02/12 11:00:07;;;;;;;17.55;7.13;;;;;;;;;;5053608;28;20033;-60
2022/02/12 11:02:35;;;;;;;20.63;9.73;;;;;;;;;;5035326;28;20458;-62
2022/02/12 11:05:02;;;;;;;21.13;7.70;;;;;;;;;;5053365;28;20029;-58
2022/02/12 11:07:28;;;;;;;17.92;8.02;;;;;;;;;;5034935;28;20048;-58
2022/02/12 11:09:55;;;;;;;15.95;7.03;;;;;;;;;;5053302;28;20108;-60
2022/02/12 11:12:25;;;;;;;19.05;7.65;;;;;;;;;;5053465;28;20017;-59
2022/02/12 11:14:51;;;;;;;20.15;9.07;;;3.20;99.90;;;;;;5052957;28;20017;-61
2022/02/12 11:17:22;;;;;;;20.17;8.52;;;6.30;99.90;;;;;;5034482;28;20112;-58
2022/02/12 11:19:49;;;;;;;19.63;7.47;;;6.60;99.90;;;;;;5053014;28;20507;-58
2022/02/12 11:22:16;;;;;;;19.45;7.82;;;6.70;99.90;;;;;;5035262;28;20024;-58
2022/02/12 11:24:44;;;;;;;21.83;8.03;;;7.10;99.90;;;;;;5052684;28;20087;-60
2022/02/12 11:27:23;;;;;;;20.00;7.85;;;7.60;99.90;;;;;;5052746;28;20283;-62
2022/02/12 11:30:17;;;;;;;16.55;8.32;;;8.20;99.90;;;;;;5034865;28;20018;-58
2022/02/12 11:32:46;;;;;;;18.02;7.72;;;8.00;99.90;;;;;;5052690;28;20086;-60
2022/02/12 11:35:12;;;;;;;18.15;8.23;;;8.20;99.90;;;;;;5052337;28;20400;-57
2022/02/12 11:37:41;;;;;;;18.67;8.73;;;8.30;99.90;;;;;;5052898;28;20033;-60
2022/02/12 11:40:13;;;;;;;18.27;8.15;;;8.40;99.90;;;;;;5052660;28;20112;-55
2022/02/12 11:42:58;;;;;;;18.92;8.93;;;8.90;99.90;;;;;;5051885;28;20028;-61
2022/02/12 11:45:42;;;;;;;17.88;8.15;;;9.40;99.90;;;;;;5033727;28;20048;-59
2022/02/12 11:48:17;;;;;;;19.33;9.00;;;9.50;98.70;;;;;;5051960;28;20078;-60
2022/02/12 11:51:05;;;;;;;20.23;8.82;;;9.00;98.90;;;;;;5052564;28;20438;-60
2022/02/12 11:53:43;;;;;;;26.92;10.88;;;9.10;99.50;;;;;;5052621;28;20040;-60
2022/02/12 11:56:18;;;;;;;21.02;9.50;;;8.80;98.60;;;;;;5033962;28;20021;-59
2022/02/12 11:58:46;;;;;;;18.25;8.50;;;8.80;98.40;;;;;;5052063;28;20500;-61
2022/02/12 12:01:35;;;;;;;20.35;8.10;;;9.00;98.20;;;;;;5052198;28;20013;-58
2022/02/12 12:04:11;;;;;;;21.35;8.75;;;8.80;96.40;;;;;;5051814;28;20128;-59
2022/02/12 12:06:37;;;;;;;17.35;7.70;;;8.60;95.70;;;;;;5051884;28;20025;-59
2022/02/12 12:09:06;;;;;;;17.85;7.90;;;9.10;95.60;;;;;;5051846;28;20048;-61
2022/02/12 12:11:33;;;;;;;19.58;8.20;;;9.70;95.10;;;;;;5052349;28;20032;-55
2022/02/12 12:14:24;;;;;;;18.60;7.80;;;10.00;94.70;;;;;;5052008;28;20436;-59
2022/02/12 12:17:00;;;;;;;17.17;8.07;;;10.40;93.90;;;;;;5052518;28;20408;-58
2022/02/12 12:19:31;;;;;;;20.15;8.98;;;10.70;93.30;;;;;;5052075;28;20029;-61
2022/02/12 12:21:58;;;;;;;19.08;9.00;;;10.10;93.00;;;;;;5052150;28;20025;-56
2022/02/12 12:24:24;;;;;;;22.25;8.63;;;10.70;92.30;;;;;;5051849;28;20034;-57
2022/02/12 12:26:50;;;;;;;21.48;9.43;;;10.90;91.90;;;;;;5051192;28;20029;-61
2022/02/12 12:32:16;;;;;;;19.42;8.07;;;10.80;90.70;;;;;;5051911;28;20051;-58
2022/02/12 12:35:00;;;;;;;21.70;8.65;;;11.10;90.00;;;;;;5051118;28;20484;-61
2022/02/12 12:37:28;;;;;;;17.05;8.20;;;10.90;90.20;;;;;;5050995;28;20033;-63
2022/02/12 12:39:58;;;;;;;17.02;8.82;;;11.10;90.20;;;;;;5051564;28;20031;-61
2022/02/12 12:42:26;;;;;;;22.23;8.98;;;11.70;90.70;;;;;;5051551;28;20052;-61
2022/02/12 12:45:01;;;;;;;16.23;7.90;;;10.30;83.20;;;;;;5033232;28;20053;-59
2022/02/12 12:47:28;;;;;;;19.63;8.98;;;11.00;83.70;;;;;;5051040;28;20039;-59
2022/02/12 12:49:56;;;;;;;17.85;9.50;;;10.60;81.70;;;;;;5051678;28;20025;-60
2022/02/12 12:52:26;;;;;;;19.30;8.40;;;10.10;82.50;;;;;;5033823;28;20401;-60
2022/02/12 12:54:57;;;;;;;19.65;8.32;;;9.80;83.20;;;;;;5051358;28;20079;-57
2022/02/12 12:57:28;;;;;;;19.27;8.20;;;10.30;84.00;;;;;;5051680;28;20032;-56
2022/02/12 12:59:56;;;;;;;19.10;8.20;;;10.30;82.30;;;;;;5051551;28;20100;-60
2022/02/12 13:02:22;;;;;;;19.38;8.95;;;10.30;82.80;;;;;;5051796;28;20028;-61
2022/02/12 13:04:50;;;;;;;16.40;7.65;;;10.70;83.30;;;;;;5051056;28;20405;-60
2022/02/12 13:07:17;;;;;;;17.25;7.80;;;10.80;80.40;;;;;;5050900;28;20032;-55
2022/02/12 13:09:45;;;;;;;18.70;8.10;;;10.30;79.70;;;;;;5051295;28;20025;-59
2022/02/12 13:12:27;;;;;;;16.57;8.10;;;11.20;79.10;;;;;;5051389;28;20017;-61
2022/02/12 13:14:54;;;;;;;18.73;8.05;;;11.60;78.30;;;;;;5033268;28;20108;-60
2022/02/12 13:17:20;;;;;;;20.40;9.13;;;11.90;77.80;;;;;;5077042;23;20040;-63
2022/02/12 13:19:50;;;;;;;18.08;8.63;;;12.60;76.10;;;;;;5070182;28;20020;-64
2022/02/12 13:22:17;;;;;;;17.85;8.80;;;11.80;75.00;;;;;;5051999;28;20031;-64
2022/02/12 13:24:50;;;;;;;17.48;8.82;;;11.20;77.50;;;;;;5051638;28;20027;-63
2022/02/12 13:27:23;;;;;;;17.55;8.50;;;11.30;77.10;;;;;;5069246;28;20115;-65
2022/02/12 13:29:49;;;;;;;18.80;8.82;;;11.60;76.60;;;;;;5051650;28;20028;-63
2022/02/12 13:32:15;;;;;;;16.35;8.60;;;11.90;76.50;;;;;;5069713;28;20038;-63
2022/02/12 13:34:47;;;;;;;19.08;8.55;;;12.30;76.00;;;;;;5069391;28;20103;-64
2022/02/12 13:37:12;;;;;;;18.23;8.40;;;12.50;75.90;;;;;;5051137;28;20476;-63
2022/02/12 13:39:50;;;;;;;17.25;8.45;;;11.60;75.00;;;;;;5069223;28;20032;-65
2022/02/12 13:42:20;;;;;;;17.80;8.52;;;11.80;75.30;;;;;;5073084;28;20403;-63
2022/02/12 13:44:46;;;;;;;20.50;8.50;;;11.80;75.20;;;;;;5073351;28;20361;-62
2022/02/12 13:47:11;;;;;;;17.55;8.52;;;10.90;76.00;;;;;;5073582;28;20028;-62
2022/02/12 13:49:39;;;;;;;18.23;8.82;;;10.50;76.80;;;;;;5073727;28;20100;-64
2022/02/12 13:52:05;;;;;;;18.52;8.85;;;9.70;88.70;;;;;;5055356;28;20032;-63
2022/02/12 13:54:32;;;;;;;16.85;8.27;;;9.40;90.70;;;;;;5072932;28;20025;-62
2022/02/12 13:57:00;;;;;;;17.15;9.07;;;9.80;90.40;;;;;;5073276;28;20036;-60
2022/02/12 13:59:26;;;;;;;18.38;9.00;;;10.10;90.70;;;;;;5072938;28;20710;-64
2022/02/12 14:01:54;;;;;;;15.90;8.35;;;10.00;90.40;;;;;;5067914;28;20028;-64
2022/02/12 14:04:21;;;;;;;18.65;8.75;;;9.00;90.90;;;;;;5082476;28;20346;-64
2022/02/12 14:06:47;;;;;;;21.20;8.80;;;8.50;91.60;;;;;;5071519;28;20086;-64
2022/02/12 14:09:14;;;;;;;17.90;8.70;;;8.10;92.20;;;;;;5061461;28;20659;-62
2022/02/12 14:11:47;;;;;;;21.23;8.73;;;8.40;92.60;;;;;;5051457;28;20415;-63